Time;durP1;ratioP1;P1;durP2;ratioP2;P2;SDS_P1;SDS_P2;PMS_P1;PMS_P2;Temp;Humidity;BMP_temperature;BMP_pressure;BME280_temperature;BME280_humidity;BME280_pressure;Samples;Min_cycle;Max_cycle;Signal;HPM_P1;HPM_P2
2023/04/15 05:02:49;;;;;;;12.43;6.60;;;3.50;99.90;;;;;;5353060;23;20055;-74
2023/04/15 05:05:15;;;;;;;12.38;6.97;;;3.50;99.90;;;;;;4945207;29;20220;-74
2023/04/15 05:07:41;;;;;;;12.25;6.85;;;3.40;99.90;;;;;;4965886;29;20028;-74
2023/04/15 05:10:25;;;;;;;10.07;6.20;;;3.50;99.90;;;;;;4954834;29;20039;-74
2023/04/15 05:12:57;;;;;;;14.02;6.40;;;3.50;99.90;;;;;;4946717;29;20327;-74
2023/04/15 05:15:31;;;;;;;11.27;6.53;;;3.50;99.90;;;;;;4942980;29;20329;-74
2023/04/15 05:18:19;;;;;;;11.63;6.22;;;3.50;99.90;;;;;;4941387;29;20047;-74
2023/04/15 05:21:13;;;;;;;10.65;5.68;;;3.50;99.90;;;;;;4960997;29;20034;-74
2023/04/15 05:23:48;;;;;;;10.80;5.25;;;3.60;99.90;;;;;;4958019;29;20098;-74
2023/04/15 05:26:14;;;;;;;12.35;5.53;;;3.60;99.90;;;;;;4964986;28;20043;-74
2023/04/15 05:28:43;;;;;;;10.50;5.85;;;3.70;99.90;;;;;;4965541;29;20042;-74
2023/04/15 05:31:29;;;;;;;10.07;5.95;;;3.80;99.90;;;;;;4961128;29;20301;-74
2023/04/15 05:33:54;;;;;;;10.50;5.72;;;3.90;99.90;;;;;;4959168;29;20042;-74
2023/04/15 05:36:20;;;;;;;12.52;6.53;;;4.00;99.90;;;;;;4964669;29;20220;-74
2023/04/15 05:38:46;;;;;;;14.15;7.35;;;4.00;99.90;;;;;;4964897;29;20034;-74
2023/04/15 05:41:31;;;;;;;14.35;6.97;;;4.00;99.90;;;;;;4964490;29;20221;-74
2023/04/15 05:44:05;;;;;;;12.15;6.35;;;4.10;99.90;;;;;;4958337;29;20411;-74
2023/04/15 05:46:37;;;;;;;11.40;6.72;;;4.10;99.90;;;;;;4964356;29;20039;-74
2023/04/15 05:49:03;;;;;;;14.68;6.60;;;4.20;99.90;;;;;;4964749;29;20023;-73
2023/04/15 05:51:41;;;;;;;16.92;6.95;;;4.30;99.90;;;;;;4955547;29;20031;-75
2023/04/15 05:54:13;;;;;;;13.20;6.25;;;4.50;99.90;;;;;;4963063;29;20037;-75
2023/04/15 05:56:45;;;;;;;11.68;5.55;;;4.60;99.90;;;;;;4955992;29;20058;-75
2023/04/15 05:59:11;;;;;;;8.52;4.70;;;4.70;99.90;;;;;;4964429;28;20038;-75
2023/04/15 06:01:43;;;;;;;13.77;6.38;;;4.80;99.90;;;;;;4955468;29;20039;-72
2023/04/15 06:04:34;;;;;;;9.20;4.93;;;5.00;99.90;;;;;;4944667;29;20115;-74
2023/04/15 06:07:00;;;;;;;8.77;4.70;;;5.20;99.90;;;;;;4945330;29;20032;-73
2023/04/15 06:09:32;;;;;;;8.77;5.00;;;5.30;99.90;;;;;;4944979;29;20042;-73
2023/04/15 06:12:11;;;;;;;8.98;4.80;;;5.40;99.90;;;;;;4945347;29;20019;-73
2023/04/15 06:14:46;;;;;;;11.52;4.80;;;5.60;99.90;;;;;;4945272;29;20042;-74
2023/04/15 06:17:13;;;;;;;11.85;4.40;;;5.70;99.90;;;;;;4945048;29;20059;-75
2023/04/15 06:19:54;;;;;;;9.20;4.85;;;5.90;99.90;;;;;;4929260;29;20042;-74
2023/04/15 06:22:26;;;;;;;12.32;4.47;;;6.00;99.90;;;;;;4945026;29;20038;-74
2023/04/15 06:24:55;;;;;;;8.52;4.38;;;6.20;99.90;;;;;;4945082;29;20032;-73
2023/04/15 06:27:23;;;;;;;11.73;4.50;;;6.20;99.90;;;;;;4944410;29;20036;-74
2023/04/15 06:30:02;;;;;;;8.02;4.32;;;6.30;99.90;;;;;;4928086;29;20042;-73
2023/04/15 06:32:40;;;;;;;8.07;3.95;;;6.30;99.90;;;;;;4944708;29;20035;-74
2023/04/15 06:36:09;;;;;;;10.02;4.80;;;6.40;99.90;;;;;;4945207;29;20238;-74
2023/04/15 06:38:49;;;;;;;8.15;4.03;;;6.50;99.90;;;;;;4896851;29;20034;-74
2023/04/15 06:41:21;;;;;;;9.48;4.43;;;6.70;99.90;;;;;;4927695;29;20293;-74
2023/04/15 06:43:50;;;;;;;9.63;4.13;;;7.00;99.90;;;;;;4945217;29;20254;-74
2023/04/15 06:46:25;;;;;;;7.32;4.05;;;7.20;99.90;;;;;;4927742;29;20034;-74
2023/04/15 06:48:52;;;;;;;9.75;4.07;;;7.40;99.90;;;;;;4912374;29;20024;-75
2023/04/15 06:51:28;;;;;;;6.72;4.20;;;7.60;99.90;;;;;;4927590;29;20042;-75
2023/04/15 06:53:57;;;;;;;9.20;4.40;;;7.80;99.90;;;;;;4912770;29;20020;-74
2023/04/15 06:56:38;;;;;;;;;;;8.00;99.90;;;;;;4924380;29;20221;-74
2023/04/15 06:59:10;;;;;;;13.23;4.45;;;8.30;99.90;;;;;;4927037;29;20096;-75
2023/04/15 07:01:36;;;;;;;6.97;3.30;;;8.60;99.90;;;;;;4944288;29;20325;-74
2023/04/15 07:04:02;;;;;;;6.80;3.85;;;8.80;99.50;;;;;;4916281;29;20032;-74
2023/04/15 07:06:28;;;;;;;9.63;3.70;;;8.80;98.90;;;;;;4927833;29;20035;-75
2023/04/15 07:09:07;;;;;;;6.53;3.90;;;8.90;98.50;;;;;;4943802;29;20034;-74
2023/04/15 07:11:37;;;;;;;9.35;3.75;;;8.90;98.40;;;;;;4944726;29;20320;-74
2023/04/15 07:14:21;;;;;;;6.95;3.63;;;9.10;97.90;;;;;;4943636;29;20086;-75
2023/04/15 07:16:59;;;;;;;8.85;3.88;;;9.00;97.90;;;;;;4927990;29;20035;-74
2023/04/15 07:19:30;;;;;;;11.02;3.88;;;9.00;97.50;;;;;;4909706;29;20031;-74
2023/04/15 07:22:02;;;;;;;9.77;3.80;;;9.00;97.60;;;;;;4927225;29;20051;-74
2023/04/15 07:24:41;;;;;;;6.18;3.78;;;9.00;97.20;;;;;;4944349;29;20336;-74
2023/04/15 07:27:11;;;;;;;10.10;4.18;;;8.90;96.90;;;;;;4921916;29;20043;-74
2023/04/15 07:29:41;;;;;;;7.53;3.67;;;8.80;97.60;;;;;;4907373;29;20036;-74
2023/04/15 07:32:47;;;;;;;8.93;3.55;;;8.80;97.60;;;;;;4921274;29;20036;-75
2023/04/15 07:35:20;;;;;;;8.73;3.65;;;8.70;97.60;;;;;;4934874;29;20348;-74
2023/04/15 07:37:48;;;;;;;6.60;3.70;;;8.70;97.90;;;;;;4925293;29;20254;-74
2023/04/15 07:40:21;;;;;;;9.70;3.88;;;8.70;97.80;;;;;;4928159;29;20083;-74
2023/04/15 07:42:48;;;;;;;7.25;3.78;;;8.80;97.80;;;;;;4931268;29;20332;-73
2023/04/15 07:45:20;;;;;;;8.95;3.92;;;8.90;97.60;;;;;;4947807;29;20076;-74
2023/04/15 07:48:24;;;;;;;6.68;3.50;;;8.90;97.50;;;;;;4934754;29;20026;-74
2023/04/15 07:50:50;;;;;;;7.00;3.80;;;9.10;97.20;;;;;;4944815;29;20031;-74
2023/04/15 07:53:31;;;;;;;11.00;4.75;;;9.20;97.20;;;;;;4946402;29;20099;-74
2023/04/15 07:55:59;;;;;;;6.70;3.55;;;9.30;97.00;;;;;;4926490;29;20103;-74
2023/04/15 07:58:35;;;;;;;9.45;4.18;;;9.30;97.00;;;;;;4946513;29;20317;-74
2023/04/15 08:01:12;;;;;;;7.78;3.70;;;9.50;96.90;;;;;;4947672;29;20137;-73
2023/04/15 08:03:39;;;;;;;8.63;3.78;;;9.70;96.50;;;;;;4929813;29;20087;-74
2023/04/15 08:06:11;;;;;;;9.00;3.78;;;9.90;96.40;;;;;;4946524;29;20246;-74
2023/04/15 08:08:48;;;;;;;7.60;3.97;;;10.10;95.80;;;;;;4923396;29;20075;-73
2023/04/15 08:11:20;;;;;;;9.27;4.20;;;10.50;95.60;;;;;;4946088;29;20032;-75
2023/04/15 08:13:49;;;;;;;7.97;3.80;;;10.90;95.10;;;;;;4941083;29;20031;-74
2023/04/15 08:16:26;;;;;;;6.90;3.55;;;11.20;94.10;;;;;;4947257;29;20063;-74
2023/04/15 08:19:02;;;;;;;10.63;4.22;;;11.40;93.30;;;;;;4926451;29;20039;-73
2023/04/15 08:22:00;;;;;;;7.82;3.97;;;11.70;92.70;;;;;;4946646;29;20067;-74
2023/04/15 08:24:33;;;;;;;9.23;4.00;;;11.70;92.20;;;;;;4946004;29;20052;-74
2023/04/15 08:27:03;;;;;;;7.88;3.50;;;11.80;92.40;;;;;;4947180;29;20087;-74
2023/04/15 08:29:33;;;;;;;8.25;3.72;;;12.00;91.90;;;;;;4887969;29;20041;-74
2023/04/15 08:32:00;;;;;;;6.00;3.17;;;11.90;91.50;;;;;;4873267;29;20069;-74
2023/04/15 08:34:33;;;;;;;8.02;3.90;;;12.10;91.70;;;;;;4888341;29;20037;-74
2023/04/15 08:37:02;;;;;;;6.93;3.55;;;12.30;91.40;;;;;;4888940;29;20059;-75
2023/04/15 08:39:44;;;;;;;7.45;3.20;;;12.60;90.70;;;;;;4888000;29;20092;-74
2023/04/15 08:42:48;;;;;;;9.70;3.42;;;12.60;90.30;;;;;;4853590;29;20056;-74
2023/04/15 08:45:28;;;;;;;6.50;3.45;;;13.10;90.10;;;;;;4888265;29;20338;-72
2023/04/15 08:48:16;;;;;;;8.32;3.58;;;13.30;88.10;;;;;;4872027;29;20048;-74
2023/04/15 08:51:02;;;;;;;8.45;3.42;;;13.40;86.80;;;;;;4872350;29;20043;-75
2023/04/15 08:53:36;;;;;;;7.22;3.47;;;13.50;86.90;;;;;;4888034;29;20354;-75
2023/04/15 08:56:17;;;;;;;6.28;2.90;;;13.50;85.90;;;;;;4888183;29;20052;-75
2023/04/15 08:58:49;;;;;;;7.32;3.42;;;14.00;86.20;;;;;;4887790;29;20036;-74
2023/04/15 09:04:18;;;;;;;6.10;3.45;;;14.40;84.10;;;;;;4924995;29;20107;-75
2023/04/15 09:06:53;;;;;;;8.40;3.25;;;14.60;83.40;;;;;;4925130;29;20114;-74
2023/04/15 09:09:22;;;;;;;8.80;3.33;;;14.50;83.30;;;;;;4925152;29;20112;-75
2023/04/15 09:11:51;;;;;;;5.45;2.70;;;14.90;83.40;;;;;;4925296;29;20110;-74
2023/04/15 09:14:23;;;;;;;8.45;3.25;;;14.90;82.50;;;;;;4925585;29;20066;-73
2023/04/15 09:17:25;;;;;;;6.70;3.00;;;15.10;82.00;;;;;;4925732;29;20055;-74
2023/04/15 09:20:28;;;;;;;7.22;3.33;;;15.30;80.60;;;;;;4872370;29;20069;-73
2023/04/15 09:22:57;;;;;;;6.88;3.53;;;15.20;80.60;;;;;;4887886;29;20052;-73
2023/04/15 09:25:31;;;;;;;6.30;3.08;;;15.40;80.70;;;;;;4873033;29;20048;-75
2023/04/15 09:28:02;;;;;;;5.22;3.20;;;15.60;80.10;;;;;;4865809;29;20056;-74
2023/04/15 09:30:36;;;;;;;6.43;2.45;;;15.70;80.50;;;;;;4886962;29;20057;-75
2023/04/15 09:33:07;;;;;;;4.47;2.65;;;15.70;79.60;;;;;;4887481;29;20041;-74
2023/04/15 09:35:40;;;;;;;5.20;2.35;;;16.00;79.00;;;;;;4872329;29;20096;-74
2023/04/15 09:38:09;;;;;;;5.05;2.40;;;16.20;77.50;;;;;;4871853;29;20040;-75
2023/04/15 09:40:57;;;;;;;7.47;2.33;;;16.40;76.10;;;;;;4879936;29;20271;-73
2023/04/15 09:43:48;;;;;;;5.25;2.20;;;16.60;76.60;;;;;;4893707;29;20129;-73
2023/04/15 09:46:19;;;;;;;6.22;2.75;;;16.70;75.20;;;;;;4886248;29;20084;-76
2023/04/15 09:49:07;;;;;;;5.28;2.63;;;16.80;74.00;;;;;;4905540;29;20080;-75
2023/04/15 09:51:46;;;;;;;5.78;2.03;;;16.80;73.40;;;;;;4889946;29;20322;-73
2023/04/15 09:54:39;;;;;;;8.65;2.53;;;16.80;72.30;;;;;;4890595;29;20099;-74
2023/04/15 09:57:17;;;;;;;4.05;2.00;;;16.50;72.80;;;;;;4939486;29;20040;-73
2023/04/15 09:59:46;;;;;;;3.97;1.80;;;16.50;72.40;;;;;;4964834;29;20069;-73
2023/04/15 10:02:21;;;;;;;6.63;2.22;;;16.70;72.20;;;;;;4965038;28;20043;-73
2023/04/15 10:04:52;;;;;;;4.85;1.80;;;16.70;72.80;;;;;;4964056;29;20084;-73
2023/04/15 10:07:21;;;;;;;5.03;1.30;;;17.00;71.70;;;;;;4964450;29;20035;-74
2023/04/15 10:09:48;;;;;;;;;;;17.10;70.30;;;;;;4964437;29;20019;-75
2023/04/15 10:12:22;;;;;;;4.13;1.70;;;17.20;69.80;;;;;;4964679;29;19907;-73
2023/04/15 10:15:08;;;;;;;5.47;2.20;;;17.40;70.50;;;;;;4964845;29;20047;-74
2023/04/15 10:17:56;;;;;;;6.72;2.03;;;17.10;70.60;;;;;;4931189;29;20027;-76
2023/04/15 10:20:27;;;;;;;7.88;2.67;;;17.00;71.30;;;;;;4956042;29;20058;-74
2023/04/15 10:22:56;;;;;;;5.97;2.03;;;16.80;71.10;;;;;;4947314;29;20094;-73
2023/04/15 10:25:25;;;;;;;5.75;2.05;;;16.80;70.80;;;;;;4947361;29;20249;-74
2023/04/15 10:27:51;;;;;;;5.13;1.77;;;16.70;71.90;;;;;;4947471;29;20030;-73
2023/04/15 10:30:17;;;;;;;5.85;1.98;;;16.80;71.00;;;;;;4964399;29;20019;-74
2023/04/15 10:32:44;;;;;;;4.70;2.28;;;17.00;71.30;;;;;;4963685;29;20022;-72
2023/04/15 10:35:14;;;;;;;5.97;2.40;;;17.10;70.80;;;;;;4965040;29;20038;-74
2023/04/15 10:37:44;;;;;;;3.42;2.00;;;17.10;71.20;;;;;;4931630;29;20027;-74
2023/04/15 10:40:30;;;;;;;4.22;2.00;;;17.20;71.60;;;;;;4964220;29;20387;-75
2023/04/15 10:43:23;;;;;;;6.57;2.05;;;17.40;71.30;;;;;;4964503;29;20019;-75
2023/04/15 10:45:52;;;;;;;5.88;2.00;;;17.50;69.70;;;;;;4920656;29;20046;-74
2023/04/15 10:48:53;;;;;;;6.68;1.50;;;17.60;69.20;;;;;;4950280;29;20273;-74
2023/04/15 10:52:11;;;;;;;5.85;1.77;;;17.50;68.00;;;;;;4950521;29;20058;-75
2023/04/15 10:54:40;;;;;;;3.75;1.30;;;17.50;67.10;;;;;;4959879;29;20035;-76
2023/04/15 10:57:06;;;;;;;;;;;17.60;68.50;;;;;;4947104;29;20067;-74
2023/04/15 11:00:05;;;;;;;4.63;1.52;;;17.60;67.70;;;;;;4946662;29;19907;-74
2023/04/15 11:03:09;;;;;;;5.30;1.88;;;17.80;67.80;;;;;;4962512;29;20236;-74
2023/04/15 11:05:40;;;;;;;5.32;1.90;;;17.90;67.80;;;;;;4940930;29;20063;-75
2023/04/15 11:08:07;;;;;;;4.53;1.98;;;18.00;67.00;;;;;;4947630;29;20058;-74
2023/04/15 11:10:33;;;;;;;7.15;2.10;;;18.00;66.70;;;;;;4963916;29;20094;-73
2023/04/15 11:13:16;;;;;;;6.43;1.80;;;18.00;67.00;;;;;;4947347;28;20026;-76
2023/04/15 11:15:45;;;;;;;5.43;2.10;;;17.90;66.80;;;;;;4967910;29;20043;-74
2023/04/15 11:18:34;;;;;;;4.78;2.42;;;18.00;66.70;;;;;;4968283;29;20058;-77
2023/04/15 11:21:03;;;;;;;4.57;1.70;;;18.40;66.50;;;;;;4967969;29;20050;-74
2023/04/15 11:23:52;;;;;;;4.38;1.98;;;18.90;65.80;;;;;;4966889;29;20078;-74
2023/04/15 11:26:34;;;;;;;7.22;2.03;;;19.60;63.40;;;;;;4967518;29;20316;-74
2023/04/15 11:29:00;;;;;;;7.13;2.17;;;19.90;62.50;;;;;;4967711;29;20046;-77
2023/04/15 11:31:27;;;;;;;4.28;1.92;;;20.10;62.10;;;;;;4950749;29;20208;-74
2023/04/15 11:33:58;;;;;;;4.93;2.22;;;20.60;61.70;;;;;;4967760;29;20305;-76
2023/04/15 11:36:26;;;;;;;4.18;1.58;;;20.90;61.70;;;;;;4967821;29;20328;-73
2023/04/15 11:38:51;;;;;;;4.88;1.70;;;21.20;60.70;;;;;;4950026;29;20050;-72
2023/04/15 11:41:23;;;;;;;5.03;2.00;;;21.50;59.60;;;;;;4967606;29;20094;-73
2023/04/15 11:43:50;;;;;;;4.93;2.30;;;21.20;58.70;;;;;;4950169;29;20038;-74
2023/04/15 11:46:16;;;;;;;4.38;1.90;;;20.50;59.70;;;;;;4967523;29;20312;-74
2023/04/15 11:48:51;;;;;;;4.22;1.90;;;19.60;61.30;;;;;;4966862;29;20099;-76
2023/04/15 11:51:19;;;;;;;4.65;1.90;;;19.00;63.00;;;;;;4967153;29;20043;-77
2023/04/15 11:53:51;;;;;;;5.32;2.00;;;18.40;64.80;;;;;;4949670;29;20042;-76
2023/04/15 11:56:27;;;;;;;6.32;2.65;;;17.70;67.20;;;;;;4958958;28;20305;-75
2023/04/15 11:58:58;;;;;;;5.75;2.30;;;17.40;69.10;;;;;;4948296;29;20031;-75
2023/04/15 12:04:29;;;;;;;6.88;2.35;;;17.70;68.20;;;;;;4947376;29;20039;-75
2023/04/15 12:07:09;;;;;;;;;;;18.30;67.80;;;;;;4941631;29;20329;-77
2023/04/15 12:09:53;;;;;;;4.32;2.40;;;18.80;66.50;;;;;;4966176;29;19914;-76
2023/04/15 12:12:19;;;;;;;5.32;2.10;;;19.40;66.00;;;;;;4954517;29;20035;-76
2023/04/15 12:14:44;;;;;;;5.68;2.38;;;19.40;63.90;;;;;;4966494;29;20093;-76
2023/04/15 12:17:19;;;;;;;4.22;2.20;;;19.30;64.00;;;;;;4966881;29;20082;-75
2023/04/15 12:19:52;;;;;;;6.28;2.30;;;18.80;65.00;;;;;;4964200;29;20041;-77
2023/04/15 12:22:19;;;;;;;6.07;2.00;;;18.40;66.00;;;;;;4949478;29;20042;-75
2023/04/15 12:24:51;;;;;;;4.97;1.77;;;17.80;67.80;;;;;;4965865;28;20025;-75
2023/04/15 12:27:16;;;;;;;6.05;1.83;;;17.20;68.10;;;;;;4949183;29;20050;-75
2023/04/15 12:29:45;;;;;;;4.45;1.77;;;16.80;68.20;;;;;;4940697;29;20086;-77
2023/04/15 12:32:13;;;;;;;3.78;2.03;;;16.50;69.30;;;;;;4963534;29;20332;-74
2023/04/15 12:34:40;;;;;;;5.22;2.17;;;15.90;73.10;;;;;;4955873;29;20043;-74
2023/04/15 12:37:11;;;;;;;6.15;2.78;;;15.10;84.00;;;;;;4962371;28;20043;-74
2023/04/15 12:39:41;;;;;;;7.85;3.17;;;13.80;92.30;;;;;;4958855;29;20039;-76
2023/04/15 12:42:08;;;;;;;5.43;3.40;;;12.60;95.60;;;;;;4966554;29;20372;-76
2023/04/15 12:44:35;;;;;;;6.78;3.25;;;11.90;99.90;;;;;;4966387;29;20027;-76
2023/04/15 12:47:00;;;;;;;5.97;3.47;;;11.30;99.90;;;;;;4964685;29;20063;-75
2023/04/15 12:49:27;;;;;;;7.32;3.70;;;10.80;99.90;;;;;;4937213;29;20031;-75
2023/04/15 12:52:01;;;;;;;5.18;3.60;;;10.60;99.90;;;;;;4963781;29;20347;-76
2023/04/15 12:54:27;;;;;;;6.93;3.47;;;10.70;99.90;;;;;;4966429;29;20124;-75
2023/04/15 12:56:54;;;;;;;7.63;3.50;;;10.80;99.90;;;;;;4948200;29;20241;-76
2023/04/15 12:59:22;;;;;;;7.28;3.58;;;11.10;99.90;;;;;;4966328;29;20038;-75
2023/04/15 13:02:04;;;;;;;6.43;3.38;;;11.40;99.90;;;;;;4945093;29;20035;-74
2023/04/15 13:04:31;;;;;;;6.50;3.15;;;11.80;99.90;;;;;;4959830;28;20031;-75
2023/04/15 13:06:59;;;;;;;4.30;2.57;;;12.10;99.90;;;;;;4982152;28;20030;-74
2023/04/15 13:09:36;;;;;;;5.03;2.55;;;12.40;99.90;;;;;;4984718;28;20422;-75
2023/04/15 13:12:05;;;;;;;7.10;3.30;;;12.80;99.90;;;;;;4968449;28;20027;-74
2023/04/15 13:14:33;;;;;;;;;;;13.10;99.90;;;;;;4979475;28;20102;-74
2023/04/15 13:19:58;;;;;;;4.38;2.35;;;13.80;97.10;;;;;;4941442;28;20250;-73
2023/04/15 13:22:25;;;;;;;4.40;2.10;;;14.20;95.70;;;;;;4966629;28;20113;-72
2023/04/15 13:24:53;;;;;;;5.15;1.75;;;14.30;93.80;;;;;;4984255;28;20035;-74
2023/04/15 13:27:20;;;;;;;5.63;2.10;;;14.40;93.30;;;;;;4984555;28;20030;-74
2023/04/15 13:30:13;;;;;;;3.10;1.40;;;14.50;92.10;;;;;;4971124;28;20094;-74
2023/04/15 13:32:44;;;;;;;4.47;1.83;;;14.70;88.30;;;;;;4984145;28;20045;-74
2023/04/15 13:35:10;;;;;;;3.20;1.55;;;14.90;87.90;;;;;;4984503;28;20063;-73
2023/04/15 13:37:39;;;;;;;4.68;1.52;;;15.00;86.60;;;;;;4965763;28;20030;-75
2023/04/15 13:40:08;;;;;;;3.63;1.60;;;15.20;87.40;;;;;;4983813;28;20030;-76
2023/04/15 13:42:43;;;;;;;4.35;2.10;;;15.60;87.50;;;;;;4942541;28;20031;-76
2023/04/15 13:45:10;;;;;;;3.55;1.50;;;16.00;83.60;;;;;;4984289;28;20039;-76
2023/04/15 13:47:38;;;;;;;4.03;1.58;;;16.10;84.90;;;;;;4966777;28;20225;-76
2023/04/15 13:50:07;;;;;;;3.63;1.55;;;16.50;81.80;;;;;;4983971;28;20039;-76
2023/04/15 13:52:36;;;;;;;3.50;1.45;;;16.60;78.40;;;;;;4984171;28;20018;-74
2023/04/15 13:55:05;;;;;;;;;;;16.50;77.40;;;;;;4984879;28;20089;-75
2023/04/15 13:57:31;;;;;;;4.20;1.23;;;16.40;71.60;;;;;;4971076;28;19906;-74
2023/04/15 13:59:57;;;;;;;4.93;1.38;;;16.00;71.60;;;;;;4984689;28;20347;-73
2023/04/15 14:02:26;;;;;;;3.17;1.20;;;15.60;70.40;;;;;;4967110;28;20046;-75
2023/04/15 14:04:57;;;;;;;3.58;1.60;;;15.50;70.60;;;;;;4976985;28;20038;-75
2023/04/15 14:07:29;;;;;;;2.42;0.80;;;15.20;70.20;;;;;;4984463;28;20031;-75
2023/04/15 14:09:55;;;;;;;1.85;0.60;;;14.90;70.00;;;;;;4983504;28;20051;-73
2023/04/15 14:12:21;;;;;;;1.50;0.70;;;14.70;71.10;;;;;;4979337;28;20030;-77
2023/04/15 14:14:47;;;;;;;3.17;0.90;;;14.50;71.80;;;;;;4966385;28;20233;-76
2023/04/15 14:17:13;;;;;;;3.80;1.23;;;14.50;71.60;;;;;;4965946;28;20090;-74
2023/04/15 14:19:39;;;;;;;2.63;0.70;;;14.50;71.40;;;;;;4983467;28;20023;-76
2023/04/15 14:22:10;;;;;;;2.65;0.98;;;14.60;69.90;;;;;;4966563;28;20035;-75
2023/04/15 14:24:39;;;;;;;3.83;0.88;;;14.50;71.20;;;;;;4966385;28;20070;-76
2023/04/15 14:27:07;;;;;;;3.20;0.70;;;14.30;72.40;;;;;;4983659;28;20094;-75
2023/04/15 14:29:38;;;;;;;2.90;0.60;;;14.30;73.10;;;;;;4983340;28;20035;-74
2023/04/15 14:32:04;;;;;;;3.63;1.00;;;14.10;71.60;;;;;;4972199;28;20027;-75
2023/04/15 14:34:33;;;;;;;2.20;0.93;;;14.00;72.00;;;;;;4964850;28;20110;-75
2023/04/15 14:36:59;;;;;;;4.55;1.25;;;13.90;70.50;;;;;;4982935;28;20236;-75
2023/04/15 14:39:35;;;;;;;3.55;1.48;;;13.90;71.10;;;;;;4983336;28;20031;-75
2023/04/15 14:42:07;;;;;;;4.10;1.45;;;13.80;70.80;;;;;;4943960;28;20054;-77
2023/04/15 14:44:33;;;;;;;3.25;1.20;;;13.70;72.10;;;;;;4982882;28;20062;-75
2023/04/15 14:46:59;;;;;;;3.35;0.80;;;13.50;72.80;;;;;;4965329;28;20332;-75
2023/04/15 14:49:29;;;;;;;2.78;0.50;;;13.40;72.80;;;;;;4985508;28;20356;-76
2023/04/15 14:51:55;;;;;;;3.78;0.70;;;13.20;72.90;;;;;;4969714;28;20027;-75
2023/04/15 14:54:20;;;;;;;3.10;0.65;;;13.10;73.50;;;;;;4969937;28;20030;-76
2023/04/15 14:56:46;;;;;;;2.00;0.60;;;12.80;73.50;;;;;;4986827;28;20042;-75
2023/04/15 14:59:12;;;;;;;1.30;0.57;;;12.70;74.60;;;;;;4969635;28;20117;-76
2023/04/15 15:01:43;;;;;;;1.52;0.73;;;12.60;75.20;;;;;;4950688;29;20039;-77
2023/04/15 15:04:10;;;;;;;2.47;0.80;;;12.50;76.10;;;;;;4978781;28;20053;-75
2023/04/15 15:06:42;;;;;;;3.42;0.80;;;12.50;76.50;;;;;;4950316;29;20035;-75
2023/04/15 15:09:10;;;;;;;2.63;1.15;;;12.50;77.00;;;;;;4967593;29;20031;-75
2023/04/15 15:11:36;;;;;;;;;;;12.40;77.70;;;;;;4945494;29;20019;-75
2023/04/15 15:14:05;;;;;;;2.13;0.77;;;12.30;78.50;;;;;;4949912;29;19985;-75
2023/04/15 15:16:30;;;;;;;2.47;0.90;;;12.20;79.60;;;;;;4946403;29;20329;-75
2023/04/15 15:18:59;;;;;;;2.88;1.02;;;12.20;80.20;;;;;;4945078;29;20019;-74
2023/04/15 15:21:25;;;;;;;2.83;1.10;;;12.20;80.40;;;;;;4967217;29;20031;-76
2023/04/15 15:23:51;;;;;;;2.67;1.00;;;12.10;80.30;;;;;;4965939;29;20031;-76
2023/04/15 15:26:20;;;;;;;4.15;0.90;;;12.00;80.30;;;;;;4967409;28;20093;-75
2023/04/15 15:28:49;;;;;;;3.13;0.93;;;11.90;81.20;;;;;;4967092;28;20221;-75
2023/04/15 15:31:22;;;;;;;2.10;0.82;;;11.80;81.80;;;;;;4966409;29;20107;-73
2023/04/15 15:33:51;;;;;;;2.35;0.80;;;11.90;82.70;;;;;;4966946;28;20043;-71
2023/04/15 15:36:19;;;;;;;2.17;0.82;;;11.80;83.50;;;;;;4967401;28;20039;-71
2023/04/15 15:38:45;;;;;;;4.47;1.42;;;11.80;84.30;;;;;;4956234;28;20103;-73
2023/04/15 15:41:11;;;;;;;3.45;0.90;;;11.80;84.70;;;;;;4957035;29;20237;-77
2023/04/15 15:43:41;;;;;;;2.53;0.75;;;11.70;86.50;;;;;;4965934;29;20072;-77
2023/04/15 15:46:12;;;;;;;2.00;1.00;;;11.70;86.90;;;;;;4965708;29;20123;-74
2023/04/15 15:48:50;;;;;;;4.22;1.25;;;11.70;86.90;;;;;;4950096;29;20042;-75
2023/04/15 15:51:19;;;;;;;2.23;0.90;;;11.70;86.50;;;;;;4966946;28;20109;-75
2023/04/15 15:53:51;;;;;;;1.80;0.70;;;11.70;85.70;;;;;;4949795;29;20031;-76
2023/04/15 15:56:18;;;;;;;2.65;0.90;;;11.80;85.60;;;;;;4966805;28;20027;-77
2023/04/15 15:58:44;;;;;;;3.03;1.00;;;11.80;85.60;;;;;;4949919;29;20027;-77
2023/04/15 16:01:16;;;;;;;3.33;1.10;;;11.80;86.10;;;;;;4945346;29;20083;-74
2023/04/15 16:03:48;;;;;;;3.42;1.08;;;11.80;86.50;;;;;;4946346;29;20115;-76
2023/04/15 16:06:37;;;;;;;2.97;1.00;;;11.80;86.00;;;;;;4947547;29;20063;-78
2023/04/15 16:09:21;;;;;;;2.20;0.98;;;11.80;87.70;;;;;;4959785;29;20307;-77
2023/04/15 16:11:47;;;;;;;1.90;1.10;;;11.70;88.10;;;;;;4942089;29;20365;-80
2023/04/15 16:14:13;;;;;;;2.60;1.20;;;11.70;90.30;;;;;;4947316;29;20035;-75
2023/04/15 16:16:38;;;;;;;2.97;1.20;;;11.60;90.80;;;;;;4947445;29;20080;-77
2023/04/15 16:19:07;;;;;;;2.33;0.93;;;11.40;91.80;;;;;;4944378;29;20034;-76
2023/04/15 16:21:33;;;;;;;;;;;11.30;92.40;;;;;;4936171;29;20043;-76
2023/04/15 16:24:01;;;;;;;;;;;11.30;93.30;;;;;;4946987;29;20019;-75
2023/04/15 16:26:26;;;;;;;2.78;1.77;;;11.10;93.90;;;;;;4934303;29;19911;-76
2023/04/15 16:28:52;;;;;;;2.05;1.13;;;11.10;95.20;;;;;;4946768;29;20023;-76
2023/04/15 16:31:18;;;;;;;4.10;1.88;;;11.00;95.50;;;;;;4945816;29;20039;-76
2023/04/15 16:33:44;;;;;;;5.05;1.70;;;10.90;96.50;;;;;;4936366;29;20035;-75
2023/04/15 16:36:11;;;;;;;2.90;1.50;;;10.90;97.60;;;;;;4934481;29;20325;-77
2023/04/15 16:38:37;;;;;;;3.05;1.70;;;10.90;98.50;;;;;;4947037;29;20046;-76
2023/04/15 16:41:03;;;;;;;3.28;1.90;;;10.90;99.40;;;;;;4944127;29;20035;-77
2023/04/15 16:43:34;;;;;;;2.72;1.52;;;10.90;99.90;;;;;;4947125;29;20058;-76
2023/04/15 16:46:03;;;;;;;3.85;1.75;;;10.90;99.90;;;;;;4946510;29;20317;-77
2023/04/15 16:48:57;;;;;;;3.97;2.08;;;10.90;99.90;;;;;;4942181;29;20040;-76
2023/04/15 16:51:31;;;;;;;3.88;1.65;;;10.90;99.90;;;;;;4957892;29;20318;-77
2023/04/15 16:53:57;;;;;;;4.10;1.92;;;10.90;99.90;;;;;;4946510;29;20063;-75
2023/04/15 16:56:22;;;;;;;3.50;1.98;;;10.70;99.90;;;;;;4946994;29;20038;-76
2023/04/15 16:58:48;;;;;;;3.08;1.77;;;10.70;99.90;;;;;;4938263;29;20042;-75
2023/04/15 17:01:14;;;;;;;3.60;2.30;;;10.50;99.90;;;;;;4962989;29;20016;-74
2023/04/15 17:03:40;;;;;;;4.93;2.10;;;10.50;99.90;;;;;;4968845;28;20047;-75
2023/04/15 17:06:05;;;;;;;4.00;2.25;;;10.40;99.90;;;;;;4973247;28;20227;-75
2023/04/15 17:08:32;;;;;;;3.15;2.00;;;10.30;99.90;;;;;;4985051;28;20035;-75
2023/04/15 17:10:58;;;;;;;4.00;2.28;;;10.20;99.90;;;;;;4984727;28;20030;-74
2023/04/15 17:13:25;;;;;;;4.72;2.00;;;10.20;99.90;;;;;;4985247;28;20298;-75
2023/04/15 17:15:51;;;;;;;3.05;2.03;;;10.10;99.90;;;;;;4984196;28;20030;-74
2023/04/15 17:18:20;;;;;;;4.20;2.40;;;10.10;99.90;;;;;;4984904;28;20050;-74
2023/04/15 17:20:49;;;;;;;4.18;2.38;;;10.10;99.90;;;;;;4984843;28;20019;-74
2023/04/15 17:23:14;;;;;;;4.80;2.55;;;10.00;99.90;;;;;;4967463;28;20339;-74
2023/04/15 17:25:46;;;;;;;4.35;2.38;;;9.90;99.90;;;;;;4984961;28;20082;-75
2023/04/15 17:28:21;;;;;;;4.65;2.40;;;9.80;99.90;;;;;;4983959;28;20094;-76
2023/04/15 17:30:50;;;;;;;4.32;2.60;;;9.80;99.90;;;;;;4984394;28;20042;-75
2023/04/15 17:33:18;;;;;;;3.85;2.55;;;9.70;99.90;;;;;;4984207;28;20037;-76
2023/04/15 17:35:56;;;;;;;5.18;2.33;;;9.70;99.90;;;;;;4984382;28;20058;-74
2023/04/15 17:38:46;;;;;;;3.95;2.35;;;9.60;99.90;;;;;;4967189;28;20035;-75
2023/04/15 17:41:14;;;;;;;4.20;2.60;;;9.60;99.90;;;;;;4963364;28;20094;-75
2023/04/15 17:43:43;;;;;;;4.35;2.63;;;9.60;99.90;;;;;;4984131;28;20026;-75
2023/04/15 17:49:15;;;;;;;6.10;2.85;;;9.50;99.90;;;;;;4971181;28;20047;-75
2023/04/15 17:51:45;;;;;;;4.90;2.40;;;9.50;99.90;;;;;;4966885;28;20035;-77
2023/04/15 17:54:11;;;;;;;4.90;2.70;;;9.40;99.90;;;;;;4983859;28;20050;-76
2023/04/15 17:56:39;;;;;;;3.08;2.13;;;9.30;99.90;;;;;;4966742;28;20022;-75
2023/04/15 17:59:07;;;;;;;3.70;2.30;;;9.40;99.90;;;;;;4983514;28;20035;-75
2023/04/15 18:01:36;;;;;;;4.40;2.20;;;9.40;99.90;;;;;;4966461;28;20054;-75
2023/04/15 18:04:05;;;;;;;3.97;2.25;;;9.30;99.90;;;;;;4952341;29;20051;-75
2023/04/15 18:06:31;;;;;;;4.03;2.20;;;9.30;99.90;;;;;;4951416;28;20031;-76
2023/04/15 18:08:57;;;;;;;4.65;2.92;;;9.20;99.90;;;;;;4964104;28;20015;-76
2023/04/15 18:11:33;;;;;;;4.93;3.40;;;9.20;99.90;;;;;;4965976;28;20090;-76
2023/04/15 18:14:01;;;;;;;4.30;2.10;;;9.20;99.90;;;;;;4951548;28;20082;-75
2023/04/15 18:16:30;;;;;;;4.00;2.50;;;9.10;99.90;;;;;;4964774;28;20175;-76
2023/04/15 18:19:00;;;;;;;5.07;1.85;;;9.10;99.90;;;;;;4964539;28;20078;-75
2023/04/15 18:21:28;;;;;;;3.15;1.55;;;9.10;99.90;;;;;;4965216;28;20110;-75
2023/04/15 18:23:54;;;;;;;;;;;9.00;99.90;;;;;;4965107;28;20030;-74
2023/04/15 18:26:20;;;;;;;2.60;1.60;;;9.00;99.90;;;;;;4947841;29;19910;-74
2023/04/15 18:28:46;;;;;;;3.47;2.00;;;9.00;99.90;;;;;;4961486;29;20023;-74
2023/04/15 18:31:15;;;;;;;4.28;2.10;;;9.00;99.90;;;;;;4959610;28;20110;-75